createdAt,value
2022-07-31T00:00:25.492Z,2.13
2022-07-31T00:02:53.578Z,1.40
2022-07-31T00:05:21.747Z,3.50
2022-07-31T00:07:49.993Z,1.30
2022-07-31T00:10:18.324Z,1.87
2022-07-31T00:12:46.472Z,1.83
2022-07-31T00:15:14.593Z,3.70
2022-07-31T00:17:45.475Z,1.30
2022-07-31T00:20:15.103Z,3.33
2022-07-31T00:22:43.955Z,2.53
2022-07-31T00:25:13.969Z,3.53
2022-07-31T00:27:42.509Z,1.67
2022-07-31T00:30:12.978Z,2.10
2022-07-31T00:32:41.876Z,4.30
2022-07-31T00:35:14.087Z,2.63
2022-07-31T00:37:42.537Z,1.70
2022-07-31T00:40:14.094Z,1.30
2022-07-31T00:42:42.309Z,2.53
2022-07-31T00:45:13.610Z,2.80
2022-07-31T00:47:42.386Z,1.67
2022-07-31T00:50:13.146Z,1.87
2022-07-31T00:52:43.193Z,1.97
2022-07-31T00:55:11.576Z,1.57
2022-07-31T00:57:39.656Z,1.80
2022-07-31T01:00:08.948Z,1.30
2022-07-31T01:02:38.434Z,1.60
2022-07-31T01:05:18.783Z,2.70
2022-07-31T01:07:48.830Z,3.47
2022-07-31T01:10:24.315Z,2.30
2022-07-31T01:12:56.150Z,3.50
2022-07-31T01:15:26.253Z,2.77
2022-07-31T01:17:55.182Z,1.60
2022-07-31T01:20:25.557Z,1.60
2022-07-31T01:23:14.781Z,5.00
2022-07-31T01:26:04.754Z,6.43
2022-07-31T01:28:57.586Z,7.20
2022-07-31T01:31:31.566Z,7.13
2022-07-31T01:34:06.508Z,6.83
2022-07-31T01:36:37.815Z,9.50
2022-07-31T01:39:06.921Z,30.37
2022-07-31T01:41:41.276Z,36.70
2022-07-31T01:44:14.213Z,24.30
2022-07-31T01:46:45.901Z,32.97
2022-07-31T01:49:19.346Z,25.73
2022-07-31T01:51:49.592Z,28.27
2022-07-31T01:54:20.752Z,16.97
2022-07-31T01:56:50.900Z,14.90
2022-07-31T01:59:24.432Z,9.27
2022-07-31T02:02:17.337Z,13.07
2022-07-31T02:04:47.097Z,17.67
2022-07-31T02:07:16.584Z,8.63
2022-07-31T02:09:52.314Z,12.73
2022-07-31T02:12:33.974Z,12.10
2022-07-31T02:15:07.335Z,12.23
2022-07-31T02:17:38.595Z,13.80
2022-07-31T02:20:26.061Z,32.60
2022-07-31T02:22:57.156Z,26.30
2022-07-31T02:25:25.937Z,34.53
2022-07-31T02:27:57.633Z,22.30
2022-07-31T02:30:39.405Z,10.13
2022-07-31T02:33:13.376Z,5.57
2022-07-31T02:35:45.585Z,7.53
2022-07-31T02:38:23.413Z,45.37
2022-07-31T02:40:59.792Z,22.73
2022-07-31T02:43:31.985Z,27.80
2022-07-31T02:46:05.768Z,16.57
2022-07-31T02:48:34.235Z,16.10
2022-07-31T02:51:06.869Z,11.57
2022-07-31T02:53:37.586Z,11.67
2022-07-31T02:56:09.351Z,11.23
2022-07-31T02:58:41.959Z,12.17
2022-07-31T03:01:16.872Z,9.13
2022-07-31T03:03:45.168Z,11.67
2022-07-31T03:06:13.757Z,10.20
2022-07-31T03:08:41.925Z,9.50
2022-07-31T03:11:10.320Z,16.23
2022-07-31T03:13:40.083Z,14.27
2022-07-31T03:16:11.329Z,23.70
2022-07-31T03:18:42.139Z,18.90
2022-07-31T03:21:11.733Z,35.73
2022-07-31T03:23:40.799Z,21.93
2022-07-31T03:26:15.156Z,23.10
2022-07-31T03:28:44.202Z,26.00
2022-07-31T03:31:12.477Z,46.43
2022-07-31T03:33:42.661Z,36.60
2022-07-31T03:36:10.976Z,23.83
2022-07-31T03:38:42.734Z,29.87
2022-07-31T03:41:23.997Z,32.20
2022-07-31T03:43:52.256Z,41.20
2022-07-31T03:46:23.499Z,36.57
2022-07-31T03:48:53.581Z,19.87
2022-07-31T03:51:24.738Z,40.47
2022-07-31T03:53:52.934Z,32.03
2022-07-31T03:56:52.301Z,37.03
2022-07-31T03:59:21.704Z,41.80
2022-07-31T04:01:58.144Z,28.60
2022-07-31T04:04:44.664Z,37.47
2022-07-31T04:07:12.829Z,28.97
2022-07-31T04:09:41.114Z,35.57
2022-07-31T04:12:11.314Z,33.33
2022-07-31T04:14:39.472Z,30.87
2022-07-31T04:17:07.597Z,27.07
2022-07-31T04:19:35.716Z,32.77
2022-07-31T04:22:05.755Z,9.80
2022-07-31T04:24:35.038Z,20.93
2022-07-31T04:27:21.730Z,12.97
2022-07-31T04:29:50.471Z,30.97
2022-07-31T04:32:19.355Z,42.90
2022-07-31T04:34:55.664Z,9.53
2022-07-31T04:37:25.102Z,16.80
2022-07-31T04:39:54.515Z,27.40
2022-07-31T04:42:22.712Z,37.27
2022-07-31T04:44:50.777Z,14.80
2022-07-31T04:47:19.036Z,12.43
2022-07-31T04:49:50.911Z,18.53
2022-07-31T04:52:19.215Z,7.23
2022-07-31T04:54:51.077Z,8.80
2022-07-31T04:57:21.994Z,5.40
2022-07-31T05:00:00.572Z,15.63
2022-07-31T05:02:32.209Z,13.03
2022-07-31T05:05:00.444Z,5.37
2022-07-31T05:07:34.660Z,4.47
2022-07-31T05:10:10.154Z,7.67
2022-07-31T05:12:38.292Z,8.13
2022-07-31T05:15:07.722Z,12.33
2022-07-31T05:17:35.890Z,16.60
2022-07-31T05:20:26.500Z,5.37
2022-07-31T05:23:23.716Z,12.93
2022-07-31T05:26:14.403Z,6.80
2022-07-31T05:28:43.461Z,14.30
2022-07-31T05:31:15.106Z,2.53
2022-07-31T05:33:44.017Z,3.73
2022-07-31T05:36:13.368Z,5.50
2022-07-31T05:38:41.813Z,7.33
2022-07-31T05:41:34.019Z,6.23
2022-07-31T05:44:20.574Z,4.33
2022-07-31T05:49:17.043Z,2.67
2022-07-31T05:51:53.999Z,3.00
2022-07-31T05:54:22.922Z,2.23
2022-07-31T05:57:10.558Z,2.67
2022-07-31T05:59:43.228Z,2.50
2022-07-31T06:02:11.411Z,4.07
2022-07-31T06:04:55.856Z,2.20
2022-07-31T06:07:24.966Z,2.03
2022-07-31T06:09:53.784Z,2.63
2022-07-31T06:12:23.517Z,1.60
2022-07-31T06:14:52.042Z,1.53
2022-07-31T06:17:43.855Z,1.60
2022-07-31T06:20:21.319Z,3.13
2022-07-31T06:22:49.998Z,1.50
2022-07-31T06:25:18.192Z,1.57
2022-07-31T06:27:53.751Z,1.43
2022-07-31T06:30:27.847Z,1.77
2022-07-31T06:32:56.628Z,1.73
2022-07-31T06:35:25.299Z,1.97
2022-07-31T06:38:32.006Z,1.53
2022-07-31T06:41:48.211Z,1.20
2022-07-31T06:44:34.470Z,1.30
2022-07-31T06:47:13.902Z,1.43
2022-07-31T06:49:54.138Z,1.53
2022-07-31T06:52:26.784Z,1.30
2022-07-31T06:54:55.802Z,1.23
2022-07-31T06:57:24.095Z,1.30
2022-07-31T06:59:53.524Z,1.17
2022-07-31T07:02:22.071Z,1.40
2022-07-31T07:05:00.049Z,1.07
2022-07-31T07:07:36.466Z,1.20
2022-07-31T07:10:06.748Z,1.37
2022-07-31T07:13:04.097Z,1.60
2022-07-31T07:15:38.267Z,1.30
2022-07-31T07:18:07.853Z,1.43
2022-07-31T07:20:41.863Z,1.30
2022-07-31T07:23:10.511Z,1.13
2022-07-31T07:25:47.484Z,1.30
2022-07-31T07:28:30.120Z,1.50
2022-07-31T07:31:04.678Z,1.40
2022-07-31T07:33:41.022Z,1.30
2022-07-31T07:36:24.057Z,1.57
2022-07-31T07:38:59.072Z,1.50
2022-07-31T07:41:27.954Z,3.80
2022-07-31T07:43:56.287Z,1.70
2022-07-31T07:46:29.369Z,1.33
2022-07-31T07:49:00.111Z,2.27
2022-07-31T07:51:37.350Z,1.23
2022-07-31T07:54:35.093Z,2.13
2022-07-31T07:57:24.130Z,1.43
2022-07-31T08:00:13.234Z,1.40
2022-07-31T08:03:49.995Z,1.27
2022-07-31T08:05:51.831Z,3.03
2022-07-31T08:08:21.124Z,1.30
2022-07-31T08:10:49.542Z,1.77
2022-07-31T08:13:51.049Z,1.47
2022-07-31T08:16:45.698Z,1.47
2022-07-31T08:19:15.968Z,1.37
2022-07-31T08:21:45.168Z,1.10
2022-07-31T08:24:13.676Z,3.33
2022-07-31T08:26:59.273Z,1.20
2022-07-31T08:29:28.788Z,2.00
2022-07-31T08:32:13.210Z,1.27
2022-07-31T08:35:09.429Z,0.80
2022-07-31T08:38:01.652Z,0.93
2022-07-31T08:40:31.459Z,3.20
2022-07-31T08:43:19.362Z,1.97
2022-07-31T08:45:53.700Z,2.07
2022-07-31T08:48:30.116Z,2.60
2022-07-31T08:51:02.669Z,1.23
2022-07-31T08:53:51.637Z,1.30
2022-07-31T08:56:22.227Z,1.27
2022-07-31T08:58:50.924Z,1.17
2022-07-31T09:01:19.805Z,1.10
2022-07-31T09:03:48.317Z,1.00
2022-07-31T09:06:18.750Z,1.20
2022-07-31T09:08:47.707Z,1.73
2022-07-31T09:11:16.571Z,2.70
2022-07-31T09:14:02.322Z,2.10
2022-07-31T09:17:00.888Z,1.07
2022-07-31T09:19:53.833Z,0.97
2022-07-31T09:22:35.996Z,1.00
2022-07-31T09:25:12.384Z,1.40
2022-07-31T09:27:41.893Z,1.40
2022-07-31T09:30:11.784Z,1.13
2022-07-31T09:33:13.140Z,1.10
2022-07-31T09:36:14.042Z,2.80
2022-07-31T09:38:48.566Z,0.90
2022-07-31T09:42:00.055Z,1.63
2022-07-31T09:44:52.439Z,1.23
2022-07-31T09:47:23.012Z,1.03
2022-07-31T09:49:55.814Z,1.43
2022-07-31T09:52:24.334Z,1.73
2022-07-31T09:55:15.713Z,1.73
2022-07-31T09:57:54.894Z,1.40
2022-07-31T10:00:24.455Z,0.90
2022-07-31T10:02:55.711Z,1.10
2022-07-31T10:05:26.311Z,2.70
2022-07-31T10:08:00.100Z,1.37
2022-07-31T10:10:45.135Z,2.30
2022-07-31T10:13:26.349Z,1.63
2022-07-31T10:16:00.741Z,1.07
2022-07-31T10:18:48.229Z,1.03
2022-07-31T10:21:44.724Z,1.20
2022-07-31T10:24:27.720Z,1.37
2022-07-31T10:27:01.969Z,0.90
2022-07-31T10:29:41.810Z,0.90
2022-07-31T10:32:11.137Z,1.20
2022-07-31T10:35:05.396Z,0.87
2022-07-31T10:37:58.961Z,0.80
2022-07-31T10:40:58.186Z,1.10
2022-07-31T10:43:30.859Z,0.90
2022-07-31T10:46:28.463Z,1.00
2022-07-31T10:49:18.761Z,2.93
2022-07-31T10:52:08.146Z,1.07
2022-07-31T10:54:58.348Z,0.90
2022-07-31T10:57:56.726Z,1.10
2022-07-31T11:00:45.342Z,0.93
2022-07-31T11:03:40.884Z,1.13
2022-07-31T11:06:40.962Z,1.10
2022-07-31T11:09:50.728Z,0.90
2022-07-31T11:13:00.426Z,1.30
2022-07-31T11:15:52.404Z,1.20
2022-07-31T11:18:39.441Z,0.80
2022-07-31T11:21:29.111Z,0.90
2022-07-31T11:24:03.848Z,1.10
2022-07-31T11:26:41.229Z,1.50
2022-07-31T11:30:00.805Z,0.90
2022-07-31T11:32:13.400Z,1.07
2022-07-31T11:34:49.190Z,1.30
2022-07-31T11:37:20.508Z,0.90
2022-07-31T11:39:51.625Z,0.90
2022-07-31T11:42:26.347Z,0.90
2022-07-31T11:45:08.314Z,1.00
2022-07-31T11:48:10.868Z,0.90
2022-07-31T11:50:32.344Z,1.03
2022-07-31T11:53:04.355Z,1.63
2022-07-31T11:55:32.527Z,0.80
2022-07-31T11:58:00.562Z,1.57
2022-07-31T12:00:30.128Z,1.00
2022-07-31T12:02:59.949Z,1.07
2022-07-31T12:05:38.905Z,1.43
2022-07-31T12:08:09.298Z,1.10
2022-07-31T12:10:38.172Z,1.60
2022-07-31T12:13:06.544Z,1.10
2022-07-31T12:15:34.704Z,0.90
2022-07-31T12:18:06.102Z,1.30
2022-07-31T12:20:36.833Z,0.90
2022-07-31T12:23:07.257Z,1.03
2022-07-31T12:25:55.375Z,1.20
2022-07-31T12:28:23.493Z,1.10
2022-07-31T12:31:00.447Z,1.17
2022-07-31T12:33:40.586Z,1.33
2022-07-31T12:36:13.949Z,1.20
2022-07-31T12:38:47.781Z,2.10
2022-07-31T12:41:17.174Z,0.90
2022-07-31T12:43:52.332Z,2.00
2022-07-31T12:46:36.803Z,2.43
2022-07-31T12:49:08.337Z,2.20
2022-07-31T12:51:46.632Z,1.30
2022-07-31T12:54:18.772Z,1.60
2022-07-31T12:56:47.499Z,1.10
2022-07-31T12:59:15.823Z,1.10
2022-07-31T13:01:44.007Z,1.00
2022-07-31T13:04:19.038Z,1.00
2022-07-31T13:06:51.337Z,1.20
2022-07-31T13:09:20.099Z,1.30
2022-07-31T13:11:48.969Z,1.30
2022-07-31T13:14:18.070Z,1.17
2022-07-31T13:16:46.771Z,1.03
2022-07-31T13:19:17.178Z,1.30
2022-07-31T13:21:49.098Z,1.00
2022-07-31T13:24:19.429Z,0.90
2022-07-31T13:26:47.794Z,0.80
2022-07-31T13:29:16.336Z,1.30
2022-07-31T13:31:46.653Z,1.10
2022-07-31T13:34:16.177Z,0.90
2022-07-31T13:36:44.244Z,1.20
2022-07-31T13:39:12.328Z,1.63
2022-07-31T13:41:41.831Z,1.00
2022-07-31T13:44:10.310Z,1.10
2022-07-31T13:46:38.596Z,1.00
2022-07-31T13:49:09.587Z,1.30
2022-07-31T13:51:39.684Z,1.00
2022-07-31T13:54:08.590Z,1.67
2022-07-31T13:56:42.702Z,1.20
2022-07-31T13:59:13.595Z,1.70
2022-07-31T14:02:03.034Z,0.93
2022-07-31T14:04:32.935Z,1.73
2022-07-31T14:07:09.264Z,1.20
2022-07-31T14:09:37.799Z,1.90
2022-07-31T14:12:06.828Z,1.20
2022-07-31T14:14:35.583Z,1.30
2022-07-31T14:17:03.684Z,0.90
2022-07-31T14:19:44.035Z,1.20
2022-07-31T14:22:14.580Z,5.63
2022-07-31T14:24:50.781Z,1.23
2022-07-31T14:27:20.348Z,1.10
2022-07-31T14:29:48.610Z,1.10
2022-07-31T14:32:17.176Z,1.70
2022-07-31T14:34:45.303Z,1.50
2022-07-31T14:37:15.209Z,1.20
2022-07-31T14:39:43.458Z,0.93
2022-07-31T14:42:12.662Z,1.27
2022-07-31T14:44:42.093Z,2.00
2022-07-31T14:47:11.136Z,1.10
2022-07-31T14:50:08.924Z,1.53
2022-07-31T14:52:29.696Z,1.20
2022-07-31T14:54:59.210Z,2.67
2022-07-31T14:57:27.761Z,2.57
2022-07-31T14:59:55.833Z,1.30
2022-07-31T15:02:23.956Z,1.20
2022-07-31T15:04:52.302Z,1.33
2022-07-31T15:07:40.871Z,18.17
2022-07-31T15:10:12.291Z,1.90
2022-07-31T15:12:40.786Z,2.00
2022-07-31T15:15:09.845Z,1.13
2022-07-31T15:17:38.019Z,2.97
2022-07-31T15:20:06.931Z,0.90
2022-07-31T15:22:35.055Z,1.03
2022-07-31T15:25:03.092Z,1.17
2022-07-31T15:27:32.624Z,1.13
2022-07-31T15:30:06.514Z,0.90
2022-07-31T15:32:36.613Z,1.40
2022-07-31T15:35:05.694Z,1.20
2022-07-31T15:37:35.491Z,1.00
2022-07-31T15:40:05.472Z,0.90
2022-07-31T15:42:38.323Z,2.10
2022-07-31T15:45:07.925Z,2.80
2022-07-31T15:47:36.241Z,3.70
2022-07-31T15:50:04.806Z,1.57
2022-07-31T15:52:32.918Z,1.00
2022-07-31T15:55:04.472Z,1.80
2022-07-31T15:57:34.270Z,1.10
2022-07-31T16:00:02.832Z,1.20
2022-07-31T16:02:39.540Z,0.90
2022-07-31T16:05:11.168Z,1.00
2022-07-31T16:08:29.943Z,1.03
2022-07-31T16:10:29.200Z,1.00
2022-07-31T16:12:58.789Z,3.43
2022-07-31T16:15:27.037Z,2.50
2022-07-31T16:17:55.358Z,1.77
2022-07-31T16:20:26.396Z,3.50
2022-07-31T16:22:58.113Z,0.70
2022-07-31T16:25:27.878Z,2.20
2022-07-31T16:27:56.428Z,1.43
2022-07-31T16:30:27.362Z,1.10
2022-07-31T16:32:55.755Z,1.70
2022-07-31T16:35:26.130Z,0.87
2022-07-31T16:37:56.131Z,2.17
2022-07-31T16:40:29.789Z,0.90
2022-07-31T16:43:48.500Z,1.17
2022-07-31T16:45:54.555Z,1.30
2022-07-31T16:48:23.324Z,0.90
2022-07-31T16:50:53.227Z,0.87
2022-07-31T16:54:13.550Z,2.07
2022-07-31T16:56:11.223Z,1.17
2022-07-31T16:58:39.349Z,0.83
2022-07-31T17:01:57.079Z,1.07
2022-07-31T17:04:00.507Z,1.23
2022-07-31T17:06:36.845Z,0.87
2022-07-31T17:09:16.102Z,1.60
2022-07-31T17:11:47.373Z,0.80
2022-07-31T17:14:15.537Z,0.90
2022-07-31T17:16:47.870Z,1.33
2022-07-31T17:19:42.934Z,1.87
2022-07-31T17:22:05.780Z,0.80
2022-07-31T17:24:37.083Z,2.17
2022-07-31T17:27:06.111Z,0.70
2022-07-31T17:29:34.717Z,0.70
2022-07-31T17:32:06.049Z,4.67
2022-07-31T17:34:35.345Z,0.93
2022-07-31T17:37:03.973Z,0.87
2022-07-31T17:39:32.375Z,1.77
2022-07-31T17:42:00.735Z,1.00
2022-07-31T17:44:28.934Z,0.90
2022-07-31T17:46:58.048Z,0.90
2022-07-31T17:49:28.831Z,1.13
2022-07-31T17:51:58.729Z,1.47
2022-07-31T17:54:36.503Z,1.03
2022-07-31T17:57:05.169Z,1.00
2022-07-31T17:59:33.549Z,0.97
2022-07-31T18:02:04.051Z,0.80
2022-07-31T18:04:36.920Z,1.17
2022-07-31T18:07:06.742Z,0.70
2022-07-31T18:09:36.440Z,0.90
2022-07-31T18:12:05.817Z,0.80
2022-07-31T18:14:34.202Z,1.07
2022-07-31T18:17:02.882Z,1.27
2022-07-31T18:19:31.018Z,0.80
2022-07-31T18:22:00.578Z,0.80
2022-07-31T18:24:28.770Z,0.93
2022-07-31T18:26:56.870Z,0.70
2022-07-31T18:29:25.045Z,0.80
2022-07-31T18:31:53.213Z,1.00
2022-07-31T18:34:21.411Z,0.97
2022-07-31T18:36:54.434Z,1.70
2022-07-31T18:39:25.138Z,0.90
2022-07-31T18:41:53.651Z,1.23
2022-07-31T18:44:22.428Z,1.17
2022-07-31T18:46:50.903Z,1.10
2022-07-31T18:50:58.697Z,0.97
2022-07-31T18:52:09.342Z,0.87
2022-07-31T18:54:39.586Z,2.13
2022-07-31T18:57:07.885Z,0.90
2022-07-31T18:59:36.655Z,1.00
2022-07-31T19:02:05.425Z,1.00
2022-07-31T19:04:34.283Z,0.87
2022-07-31T19:07:02.455Z,2.07
2022-07-31T19:09:30.728Z,1.90
2022-07-31T19:12:06.169Z,1.80
2022-07-31T19:14:36.476Z,1.27
2022-07-31T19:17:04.683Z,1.40
2022-07-31T19:19:54.396Z,0.83
2022-07-31T19:22:23.765Z,1.03
2022-07-31T19:24:52.168Z,2.07
2022-07-31T19:27:22.201Z,2.30
2022-07-31T19:30:12.020Z,0.90
2022-07-31T19:32:40.835Z,1.73
2022-07-31T19:35:09.655Z,1.47
2022-07-31T19:37:37.951Z,0.80
2022-07-31T19:40:08.687Z,1.53
2022-07-31T19:42:38.455Z,1.60
2022-07-31T19:45:07.199Z,1.40
2022-07-31T19:47:36.345Z,1.50
2022-07-31T19:50:04.958Z,1.47
2022-07-31T19:52:33.003Z,1.10
2022-07-31T19:55:01.047Z,2.93
2022-07-31T19:57:29.175Z,0.90
2022-07-31T19:59:59.096Z,1.40
2022-07-31T20:02:27.607Z,1.50
2022-07-31T20:04:56.358Z,1.40
2022-07-31T20:07:24.706Z,2.23
2022-07-31T20:09:52.803Z,2.20
2022-07-31T20:12:20.872Z,1.90
2022-07-31T20:14:49.816Z,1.10
2022-07-31T20:17:19.471Z,3.13
2022-07-31T20:20:01.644Z,1.10
2022-07-31T20:22:35.744Z,1.10
2022-07-31T20:25:19.962Z,3.17
2022-07-31T20:27:49.465Z,1.80
2022-07-31T20:30:21.727Z,2.67
2022-07-31T20:32:51.525Z,1.53
2022-07-31T20:35:29.034Z,1.13
2022-07-31T20:38:08.832Z,2.77
2022-07-31T20:40:51.128Z,1.30
2022-07-31T20:43:22.668Z,1.23
2022-07-31T20:45:50.848Z,1.53
2022-07-31T20:48:21.990Z,4.63
2022-07-31T20:50:50.148Z,1.47
2022-07-31T20:53:19.342Z,1.63
2022-07-31T20:55:49.723Z,1.83
2022-07-31T20:58:18.500Z,2.30
2022-07-31T21:00:47.486Z,1.60
2022-07-31T21:03:15.925Z,1.27
2022-07-31T21:05:45.977Z,1.03
2022-07-31T21:08:14.191Z,0.90
2022-07-31T21:10:42.335Z,2.27
2022-07-31T21:13:10.474Z,4.03
2022-07-31T21:15:42.608Z,1.27
2022-07-31T21:18:13.027Z,0.97
2022-07-31T21:20:52.079Z,1.20
2022-07-31T21:23:23.953Z,0.97
2022-07-31T21:25:52.786Z,1.67
2022-07-31T21:28:21.614Z,1.47
2022-07-31T21:30:50.264Z,2.00
2022-07-31T21:33:18.898Z,3.17
2022-07-31T21:35:47.656Z,3.17
2022-07-31T21:38:16.766Z,3.63
2022-07-31T21:40:47.077Z,1.37
2022-07-31T21:43:16.854Z,2.57
2022-07-31T21:45:57.573Z,3.10
2022-07-31T21:48:31.366Z,1.97
2022-07-31T21:51:00.303Z,1.37
2022-07-31T21:53:28.375Z,0.90
2022-07-31T21:56:01.846Z,1.33
2022-07-31T21:58:29.938Z,1.27
2022-07-31T22:00:58.063Z,1.50
2022-07-31T22:03:26.433Z,1.50
2022-07-31T22:06:11.784Z,2.50
2022-07-31T22:08:40.088Z,2.60
2022-07-31T22:11:09.713Z,1.90
2022-07-31T22:13:37.814Z,1.57
2022-07-31T22:16:06.440Z,3.03
2022-07-31T22:18:35.882Z,1.60
2022-07-31T22:21:06.199Z,1.53
2022-07-31T22:23:34.631Z,1.90
2022-07-31T22:26:03.371Z,1.57
2022-07-31T22:28:33.441Z,1.00
2022-07-31T22:31:02.064Z,2.30
2022-07-31T22:33:30.304Z,2.03
2022-07-31T22:36:02.658Z,1.20
2022-07-31T22:38:31.740Z,1.40
2022-07-31T22:41:00.764Z,1.30
2022-07-31T22:44:11.215Z,2.40
2022-07-31T22:46:19.203Z,1.40
2022-07-31T22:48:47.710Z,3.63
2022-07-31T22:51:16.021Z,4.50
2022-07-31T22:53:48.764Z,2.57
2022-07-31T22:56:17.789Z,1.23
2022-07-31T22:58:45.833Z,1.83
2022-07-31T23:01:13.992Z,1.27
2022-07-31T23:03:43.583Z,4.00
2022-07-31T23:06:29.828Z,4.87
2022-07-31T23:08:59.878Z,3.37
2022-07-31T23:11:28.238Z,2.97
2022-07-31T23:13:56.384Z,1.20
2022-07-31T23:16:24.550Z,1.30
2022-07-31T23:18:54.069Z,1.30
2022-07-31T23:21:22.453Z,1.50
2022-07-31T23:23:50.861Z,1.20
2022-07-31T23:26:19.537Z,1.43
2022-07-31T23:28:47.853Z,1.50
2022-07-31T23:31:16.265Z,1.93
2022-07-31T23:33:45.284Z,1.80
2022-07-31T23:36:15.418Z,1.03
2022-07-31T23:38:44.093Z,2.20
2022-07-31T23:41:12.332Z,1.30
2022-07-31T23:43:39.479Z,1.70
2022-07-31T23:46:07.903Z,1.40
2022-07-31T23:48:36.123Z,1.67
2022-07-31T23:51:07.528Z,1.70
2022-07-31T23:53:36.984Z,1.83
2022-07-31T23:56:05.367Z,1.80
2022-07-31T23:58:46.854Z,1.57
